Time;durP1;ratioP1;P1;durP2;ratioP2;P2;SDS_P1;SDS_P2;PMS_P1;PMS_P2;Temp;Humidity;BMP_temperature;BMP_pressure;BME280_temperature;BME280_humidity;BME280_pressure;Samples;Min_cycle;Max_cycle;Signal;HPM_P1;HPM_P2
2022/04/06 00:00:11;;;;;;;15.23;9.70;;;;;;;;;;6268523;28;20454;-61
2022/04/06 00:03:32;;;;;;;14.48;9.05;;;;;;;;;;6268695;28;20601;-61
2022/04/06 00:06:33;;;;;;;15.25;8.82;;;;;;;;;;6267291;28;20049;-61
2022/04/06 00:09:37;;;;;;;13.20;8.30;;;;;;;;;;6268790;28;20130;-61
2022/04/06 00:12:39;;;;;;;12.93;8.20;;;;;;;;;;6264379;28;20052;-60
2022/04/06 00:15:39;;;;;;;12.53;7.47;;;;;;;;;;6257980;28;20045;-62
2022/04/06 00:18:40;;;;;;;14.07;8.30;;;;;;;;;;6265056;28;20499;-61
2022/04/06 00:21:40;;;;;;;14.02;8.70;;;;;;;;;;6265772;28;20045;-62
2022/04/06 00:24:41;;;;;;;13.60;8.20;;;;;;;;;;6267675;28;20056;-61
2022/04/06 00:27:41;;;;;;;13.90;8.18;;;;;;;;;;6267266;28;20116;-62
2022/04/06 00:30:42;;;;;;;12.80;7.88;;;;;;;;;;6268703;28;20053;-62
2022/04/06 00:33:42;;;;;;;17.15;9.02;;;;;;;;;;6268364;28;20072;-61
2022/04/06 00:36:44;;;;;;;14.65;9.05;;;;;;;;;;6264715;28;20045;-61
2022/04/06 00:39:44;;;;;;;13.85;8.25;;;;;;;;;;6267940;28;20408;-62
2022/04/06 00:42:46;;;;;;;15.10;8.32;;;;;;;;;;6267833;28;20072;-61
2022/04/06 00:45:47;;;;;;;13.73;8.15;;;;;;;;;;6264474;28;20060;-61
2022/04/06 00:48:48;;;;;;;13.52;8.25;;;;;;;;;;6266183;28;20052;-62
2022/04/06 00:51:49;;;;;;;14.93;8.13;;;;;;;;;;6267976;28;20057;-62
2022/04/06 00:54:50;;;;;;;14.52;8.40;;;;;;;;;;6267217;28;20160;-62
2022/04/06 00:57:51;;;;;;;15.35;8.27;;;;;;;;;;6265835;28;20094;-62
2022/04/06 01:00:52;;;;;;;12.07;7.63;;;;;;;;;;6266914;28;20060;-61
2022/04/06 01:03:52;;;;;;;13.40;8.32;;;;;;;;;;6266353;28;20132;-62
2022/04/06 01:06:53;;;;;;;14.07;8.20;;;;;;;;;;6263399;28;20045;-62
2022/04/06 01:09:54;;;;;;;13.10;7.95;;;;;;;;;;6266426;28;20049;-62
2022/04/06 01:12:55;;;;;;;13.05;7.72;;;;;;;;;;6262265;28;20048;-62
2022/04/06 01:15:56;;;;;;;14.13;8.03;;;;;;;;;;6261716;28;20076;-62
2022/04/06 01:18:56;;;;;;;12.93;8.30;;;;;;;;;;6263133;28;20065;-62
2022/04/06 01:21:57;;;;;;;14.10;7.88;;;;;;;;;;6267191;28;20183;-62
2022/04/06 01:24:58;;;;;;;12.82;7.80;;;;;;;;;;6266789;28;20550;-61
2022/04/06 01:27:58;;;;;;;13.38;8.30;;;;;;;;;;6266517;28;20041;-62
2022/04/06 01:30:59;;;;;;;13.65;8.13;;;;;;;;;;6266488;28;20045;-62
2022/04/06 01:34:00;;;;;;;15.68;8.23;;;;;;;;;;6267050;28;20373;-62
2022/04/06 01:37:03;;;;;;;14.45;7.95;;;;;;;;;;6262442;28;20148;-62
2022/04/06 01:40:05;;;;;;;13.15;8.07;;;;;;;;;;6264715;28;20151;-63
2022/04/06 01:43:06;;;;;;;;;;;;;;;;;;6266469;28;20064;-62
2022/04/06 01:46:06;;;;;;;13.98;8.52;;;;;;;;;;6264212;28;20405;-61
2022/04/06 01:52:26;;;;;;;13.93;8.35;;;;;;;;;;6265009;28;20468;-61
2022/04/06 01:55:27;;;;;;;14.35;8.45;;;;;;;;;;6265725;28;20048;-61
2022/04/06 01:58:28;;;;;;;14.57;8.88;;;;;;;;;;6265412;28;20049;-61
2022/04/06 02:01:28;;;;;;;12.88;7.90;;;;;;;;;;6265925;28;20056;-61
2022/04/06 02:04:29;;;;;;;15.38;8.35;;;;;;;;;;6266055;28;20053;-61
2022/04/06 02:07:30;;;;;;;14.50;8.65;;;;;;;;;;6261991;28;20052;-61
2022/04/06 02:10:30;;;;;;;13.82;8.55;;;;;;;;;;6263121;28;20502;-61
2022/04/06 02:13:32;;;;;;;13.25;8.13;;;;;;;;;;6265222;28;20055;-61
2022/04/06 02:16:32;;;;;;;15.07;9.43;;;;;;;;;;6264306;28;20063;-61
2022/04/06 02:19:35;;;;;;;14.55;8.40;;;;;;;;;;6262963;28;20048;-61
2022/04/06 02:22:36;;;;;;;;;;;;;;;;;;6262962;28;20073;-61
2022/04/06 02:25:36;;;;;;;13.20;7.97;;;;;;;;;;6263428;28;20837;-61
2022/04/06 02:28:37;;;;;;;14.63;8.80;;;;;;;;;;6262416;28;20131;-61
2022/04/06 02:31:38;;;;;;;15.63;9.13;;;;;;;;;;6263940;28;20858;-61
2022/04/06 02:34:39;;;;;;;13.77;9.02;;;;;;;;;;6262447;28;20143;-61
2022/04/06 02:37:41;;;;;;;15.50;9.20;;;;;;;;;;6261264;28;20439;-61
2022/04/06 02:40:42;;;;;;;15.48;8.98;;;;;;;;;;6262082;28;20049;-61
2022/04/06 02:43:42;;;;;;;15.82;9.60;;;;;;;;;;6263159;28;20110;-61
2022/04/06 02:46:44;;;;;;;14.65;8.68;;;;;;;;;;6260748;28;20107;-60
2022/04/06 02:49:45;;;;;;;15.05;8.85;;;;;;;;;;6265992;28;20122;-62
2022/04/06 02:52:47;;;;;;;16.52;9.23;;;;;;;;;;6262596;28;20080;-63
2022/04/06 02:55:48;;;;;;;15.48;8.88;;;;;;;;;;6261478;28;20449;-62
2022/04/06 02:58:48;;;;;;;15.25;8.38;;;;;;;;;;6262553;28;20048;-61
2022/04/06 03:01:49;;;;;;;15.50;9.10;;;;;;;;;;6262730;28;20053;-61
2022/04/06 03:04:49;;;;;;;15.63;8.43;;;;;;;;;;6264901;28;20128;-62
2022/04/06 03:07:51;;;;;;;14.82;8.75;;;;;;;;;;6262056;28;20045;-62
2022/04/06 03:10:51;;;;;;;14.40;8.60;;;;;;;;;;6264184;28;20590;-63
2022/04/06 03:13:52;;;;;;;13.55;8.52;;;;;;;;;;6264043;28;20091;-62
2022/04/06 03:16:53;;;;;;;14.73;8.38;;;;;;;;;;6263055;28;20128;-62
2022/04/06 03:19:53;;;;;;;15.93;8.82;;;;;;;;;;6261861;28;20496;-62
2022/04/06 03:22:54;;;;;;;16.13;10.07;;;;;;;;;;6263152;28;20049;-62
2022/04/06 03:25:54;;;;;;;15.88;9.27;;;;;;;;;;6264540;28;20056;-62
2022/04/06 03:28:57;;;;;;;15.77;9.07;;;;;;;;;;6267288;28;20041;-63
2022/04/06 03:31:58;;;;;;;16.65;9.75;;;;;;;;;;6269192;28;20045;-62
2022/04/06 03:34:59;;;;;;;13.45;8.68;;;;;;;;;;6267960;28;20068;-63
2022/04/06 03:38:00;;;;;;;16.17;9.23;;;;;;;;;;6267329;28;20631;-62
2022/04/06 03:41:00;;;;;;;14.85;9.20;;;;;;;;;;6268112;28;20424;-63
2022/04/06 03:44:01;;;;;;;18.15;10.15;;;;;;;;;;6266469;28;20049;-62
2022/04/06 03:47:02;;;;;;;17.25;10.27;;;;;;;;;;6266512;28;20492;-63
2022/04/06 03:50:04;;;;;;;15.65;9.60;;;;;;;;;;6260596;28;20465;-62
2022/04/06 03:53:05;;;;;;;17.05;10.05;;;;;;;;;;6266446;28;20041;-62
2022/04/06 03:56:06;;;;;;;18.67;10.00;;;;;;;;;;6266731;28;20087;-61
2022/04/06 03:59:08;;;;;;;18.30;10.95;;;;;;;;;;6266473;28;20085;-62
2022/04/06 04:02:08;;;;;;;;;;;;;;;;;;6266391;28;20099;-62
2022/04/06 04:05:09;;;;;;;18.35;9.57;;;;;;;;;;6265817;28;19990;-62
2022/04/06 04:08:10;;;;;;;18.10;10.27;;;;;;;;;;6264184;28;20069;-62
2022/04/06 04:11:10;;;;;;;19.38;10.77;;;;;;;;;;6265612;28;20897;-61
2022/04/06 04:14:11;;;;;;;16.98;10.32;;;;;;;;;;6266374;28;20051;-61
2022/04/06 04:17:12;;;;;;;18.17;9.73;;;;;;;;;;6258853;28;20485;-62
2022/04/06 04:20:12;;;;;;;21.33;11.32;;;;;;;;;;6266175;28;20045;-62
2022/04/06 04:23:13;;;;;;;19.88;10.85;;;;;;;;;;6268705;28;20654;-63
2022/04/06 04:26:14;;;;;;;17.85;10.10;;;;;;;;;;6260124;28;20050;-63
2022/04/06 04:29:14;;;;;;;19.70;10.85;;;;;;;;;;6267663;28;21252;-63
2022/04/06 04:32:16;;;;;;;16.63;9.10;;;;;;;;;;6263982;28;20049;-63
2022/04/06 04:35:16;;;;;;;18.20;10.07;;;;;;;;;;6264165;28;20060;-61
2022/04/06 04:38:17;;;;;;;18.88;11.05;;;;;;;;;;6260815;28;20111;-61
2022/04/06 04:41:18;;;;;;;18.98;11.55;;;;;;;;;;6265085;28;20140;-61
2022/04/06 04:44:18;;;;;;;21.25;12.60;;;;;;;;;;6264862;28;20392;-61
2022/04/06 04:47:19;;;;;;;22.70;12.68;;;;;;;;;;6259372;28;20041;-62
2022/04/06 04:50:20;;;;;;;23.27;12.88;;;;;;;;;;6264693;28;20543;-62
2022/04/06 04:53:20;;;;;;;23.20;12.35;;;;;;;;;;6266404;28;20127;-63
2022/04/06 04:56:21;;;;;;;24.77;12.95;;;;;;;;;;6263372;28;20041;-61
2022/04/06 04:59:21;;;;;;;24.23;13.80;;;;;;;;;;6262406;28;20037;-63
2022/04/06 05:02:22;;;;;;;25.02;13.63;;;;;;;;;;6262892;28;20112;-62
2022/04/06 05:05:23;;;;;;;24.75;14.40;;;;;;;;;;6262957;28;20120;-62
2022/04/06 05:08:25;;;;;;;26.93;12.73;;;;;;;;;;6266069;28;20056;-60
2022/04/06 05:11:25;;;;;;;22.42;11.77;;;;;;;;;;6265404;28;20132;-61
2022/04/06 05:14:27;;;;;;;23.58;12.13;;;;;;;;;;6265691;28;20526;-61
2022/04/06 05:17:28;;;;;;;25.70;13.17;;;;;;;;;;6261289;28;20059;-60
2022/04/06 05:20:29;;;;;;;26.50;13.13;;;;;;;;;;6261662;28;20041;-61
2022/04/06 05:23:29;;;;;;;25.23;12.02;;;;;;;;;;6254300;28;20069;-64
2022/04/06 05:26:30;;;;;;;25.17;11.90;;;;;;;;;;6250803;28;20076;-61
2022/04/06 05:29:31;;;;;;;26.08;11.95;;;;;;;;;;6256704;28;20045;-61
2022/04/06 05:32:31;;;;;;;27.70;13.93;;;;;;;;;;6259658;28;20044;-61
2022/04/06 05:35:32;;;;;;;22.50;11.98;;;;;;;;;;6259479;28;20046;-61
2022/04/06 05:38:34;;;;;;;21.20;11.05;;;;;;;;;;6258194;28;20507;-61
2022/04/06 05:41:35;;;;;;;19.70;11.93;;;;;;;;;;6265003;28;20041;-61
2022/04/06 05:44:36;;;;;;;20.05;10.65;;;;;;;;;;6266272;28;20118;-63
2022/04/06 05:47:37;;;;;;;19.55;11.32;;;;;;;;;;6259622;28;20488;-62
2022/04/06 05:50:38;;;;;;;21.50;10.57;;;;;;;;;;6264350;28;20045;-67
2022/04/06 05:53:39;;;;;;;21.40;11.50;;;;;;;;;;6263570;28;20080;-61
2022/04/06 05:56:40;;;;;;;19.27;9.95;;;;;;;;;;6265067;28;20070;-62
2022/04/06 05:59:40;;;;;;;17.92;10.55;;;;;;;;;;6259974;28;20053;-62
2022/04/06 06:02:43;;;;;;;19.77;10.32;;;;;;;;;;6254555;28;20051;-62
2022/04/06 06:05:43;;;;;;;18.85;9.55;;;;;;;;;;6262923;28;20056;-63
2022/04/06 06:08:44;;;;;;;17.55;10.07;;;;;;;;;;6264681;28;20459;-62
2022/04/06 06:11:45;;;;;;;18.48;10.88;;;;;;;;;;6258799;28;20160;-62
2022/04/06 06:14:46;;;;;;;17.48;9.77;;;;;;;;;;6258439;28;20049;-62
2022/04/06 06:17:46;;;;;;;17.05;9.65;;;;;;;;;;6261348;28;20100;-65
2022/04/06 06:20:47;;;;;;;16.90;10.02;;;;;;;;;;6258560;28;20083;-61
2022/04/06 06:23:47;;;;;;;17.17;9.38;;;;;;;;;;6262684;28;20076;-62
2022/04/06 06:26:49;;;;;;;16.92;9.98;;;;;;;;;;6254619;28;20095;-60
2022/04/06 06:29:49;;;;;;;16.15;9.20;;;;;;;;;;6266426;28;20488;-63
2022/04/06 06:32:50;;;;;;;20.15;9.88;;;;;;;;;;6251305;28;20047;-63
2022/04/06 06:35:50;;;;;;;16.33;8.90;;;;;;;;;;6256742;28;20107;-63
2022/04/06 06:38:52;;;;;;;15.40;9.10;;;;;;;;;;6270580;28;20049;-60
2022/04/06 06:41:53;;;;;;;16.63;9.88;;;;;;;;;;6250661;28;20049;-62
2022/04/06 06:44:53;;;;;;;15.68;9.80;;;;;;;;;;6262420;28;20102;-62
2022/04/06 06:47:54;;;;;;;18.00;9.88;;;;;;;;;;6256758;28;20100;-64
2022/04/06 06:50:55;;;;;;;23.60;12.52;;;;;;;;;;6249991;28;20068;-62
2022/04/06 06:53:57;;;;;;;17.98;10.60;;;;;;;;;;6261331;28;20728;-62
2022/04/06 06:56:58;;;;;;;20.13;10.38;;;;;;;;;;6260518;28;20080;-63
2022/04/06 06:59:58;;;;;;;21.10;10.75;;;;;;;;;;6260092;28;20053;-62
2022/04/06 07:02:59;;;;;;;15.60;10.00;;;;;;;;;;6264145;28;20068;-63
2022/04/06 07:05:59;;;;;;;17.85;9.90;;;;;;;;;;6260095;28;20052;-66
2022/04/06 07:09:00;;;;;;;20.75;11.93;;;;;;;;;;6262323;28;20469;-64
2022/04/06 07:12:00;;;;;;;17.73;10.80;;;;;;;;;;6262383;28;20123;-63
2022/04/06 07:15:01;;;;;;;16.48;10.35;;;;;;;;;;6263357;28;20060;-62
2022/04/06 07:18:03;;;;;;;16.75;10.73;;;;;;;;;;6254808;28;20540;-63
2022/04/06 07:21:04;;;;;;;16.13;10.32;;;;;;;;;;6263127;28;20825;-62
2022/04/06 07:24:04;;;;;;;16.20;9.68;;;;;;;;;;6254990;28;20076;-64
2022/04/06 07:27:05;;;;;;;15.25;9.20;;;;;;;;;;6255154;28;20483;-62
2022/04/06 07:30:08;;;;;;;15.70;9.38;;;;;;;;;;6267178;28;20077;-65
2022/04/06 07:33:09;;;;;;;14.60;8.50;;;;;;;;;;6265195;28;20049;-64
2022/04/06 07:36:10;;;;;;;14.40;8.38;;;;;;;;;;6258697;28;20041;-64
2022/04/06 07:39:11;;;;;;;15.25;9.15;;;;;;;;;;6263278;28;20056;-65
2022/04/06 07:42:11;;;;;;;13.73;8.23;;;;;;;;;;6258804;28;20128;-66
2022/04/06 07:45:14;;;;;;;14.50;8.32;;;;;;;;;;6262182;28;20063;-67
2022/04/06 07:48:14;;;;;;;14.07;7.65;;;;;;;;;;6255971;28;20500;-67
2022/04/06 07:51:16;;;;;;;16.65;9.35;;;;;;;;;;6257100;28;20052;-65
2022/04/06 07:54:17;;;;;;;23.83;12.53;;;;;;;;;;6265664;28;20049;-64
2022/04/06 07:57:20;;;;;;;47.88;20.77;;;;;;;;;;6255404;28;20049;-64
2022/04/06 08:00:21;;;;;;;16.95;9.95;;;;;;;;;;6248065;28;20110;-63
2022/04/06 08:03:21;;;;;;;14.13;9.52;;;;;;;;;;6256287;28;20468;-64
2022/04/06 08:06:24;;;;;;;14.15;9.65;;;;;;;;;;6255957;28;20535;-64
2022/04/06 08:09:24;;;;;;;;;;;;;;;;;;6254655;28;20064;-67
2022/04/06 08:12:25;;;;;;;14.07;8.05;;;;;;;;;;6251934;28;20489;-66
2022/04/06 08:15:26;;;;;;;14.18;8.80;;;;;;;;;;6262096;28;20068;-68
2022/04/06 08:18:27;;;;;;;14.23;9.82;;;;;;;;;;6265597;28;20048;-66
2022/04/06 08:21:27;;;;;;;15.85;9.38;;;;;;;;;;6268819;28;20065;-66
2022/04/06 08:24:28;;;;;;;14.63;8.90;;;;;;;;;;6269115;28;20037;-65
2022/04/06 08:27:29;;;;;;;14.85;9.30;;;;;;;;;;6263937;28;20465;-64
2022/04/06 08:30:29;;;;;;;16.10;9.65;;;;;;;;;;6258041;28;20048;-65
2022/04/06 08:33:30;;;;;;;17.52;10.18;;;;;;;;;;6266646;28;20123;-64
2022/04/06 08:36:30;;;;;;;14.90;9.60;;;;;;;;;;6266599;28;20064;-64
2022/04/06 08:39:31;;;;;;;15.70;9.90;;;;;;;;;;6249130;28;20055;-64
2022/04/06 08:42:33;;;;;;;19.38;12.02;;;;;;;;;;6267803;28;20095;-63
2022/04/06 08:45:38;;;;;;;19.83;11.95;;;;;;;;;;6247682;28;20046;-67
2022/04/06 08:48:39;;;;;;;17.75;10.70;;;;;;;;;;6266562;28;20053;-67
2022/04/06 08:51:40;;;;;;;16.98;10.05;;;;;;;;;;6252567;28;20093;-68
2022/04/06 08:54:40;;;;;;;13.68;9.23;;;;;;;;;;6268133;28;20124;-68
2022/04/06 08:57:41;;;;;;;14.68;9.40;;;;;;;;;;6258560;28;20045;-67
2022/04/06 09:00:42;;;;;;;14.35;8.75;;;;;;;;;;6265669;28;20080;-65
2022/04/06 09:03:42;;;;;;;15.27;8.95;;;;;;;;;;6258828;28;20051;-65
2022/04/06 09:06:44;;;;;;;14.68;8.65;;;;;;;;;;6260404;28;20064;-65
2022/04/06 09:09:50;;;;;;;13.43;8.57;;;;;;;;;;6260257;28;20837;-68
2022/04/06 09:12:50;;;;;;;13.38;9.00;;;;;;;;;;6251902;28;20084;-68
2022/04/06 09:15:59;;;;;;;13.00;8.40;;;;;;;;;;6254289;28;20045;-68
2022/04/06 09:19:14;;;;;;;14.82;8.68;;;;;;;;;;6259196;28;20044;-68
2022/04/06 09:22:14;;;;;;;15.15;8.70;;;;;;;;;;6269079;28;20074;-68
2022/04/06 09:25:16;;;;;;;14.68;8.68;;;;;;;;;;6261033;28;20071;-67
2022/04/06 09:28:17;;;;;;;12.35;7.97;;;;;;;;;;6264841;28;20053;-68
2022/04/06 09:31:20;;;;;;;15.30;9.20;;;;;;;;;;6253451;28;20169;-67
2022/04/06 09:34:23;;;;;;;14.18;8.50;;;;;;;;;;6264221;28;20067;-67
2022/04/06 09:37:30;;;;;;;13.07;9.00;;;;;;;;;;6261603;28;20048;-67
2022/04/06 09:40:31;;;;;;;13.55;8.52;;;;;;;;;;6264242;28;20067;-68
2022/04/06 09:43:33;;;;;;;13.13;8.15;;;;;;;;;;6266495;28;20120;-68
2022/04/06 09:50:14;;;;;;;11.80;7.22;;;;;;;;;;6258996;28;20527;-68
2022/04/06 09:53:15;;;;;;;12.88;7.13;;;;;;;;;;6263915;28;20048;-66
2022/04/06 09:56:16;;;;;;;10.75;7.35;;;;;;;;;;6257336;28;20053;-69
2022/04/06 09:59:17;;;;;;;13.00;7.23;;;;;;;;;;6262632;28;20052;-67
2022/04/06 10:02:18;;;;;;;11.85;7.40;;;;;;;;;;6263941;28;20718;-66
2022/04/06 10:05:20;;;;;;;11.45;7.05;;;;;;;;;;6262195;28;20439;-66
2022/04/06 10:08:21;;;;;;;10.80;6.60;;;;;;;;;;6262504;28;20431;-66
2022/04/06 10:11:22;;;;;;;10.32;6.60;;;;;;;;;;6255908;28;20460;-66
2022/04/06 10:14:25;;;;;;;9.57;6.25;;;;;;;;;;6264991;28;20045;-64
2022/04/06 10:17:27;;;;;;;10.88;6.38;;;;;;;;;;6259629;28;20051;-66
2022/04/06 10:20:36;;;;;;;11.05;6.28;;;;;;;;;;6259021;28;20071;-66
2022/04/06 10:23:53;;;;;;;16.63;9.32;;;;;;;;;;6251948;28;20052;-67
2022/04/06 10:26:59;;;;;;;11.80;6.78;;;;;;;;;;6262540;28;20645;-66
2022/04/06 10:30:06;;;;;;;10.68;6.47;;;;;;;;;;6264931;28;20055;-66
2022/04/06 10:33:19;;;;;;;13.25;7.15;;;;;;;;;;6262508;28;20115;-65
2022/04/06 10:36:30;;;;;;;13.35;7.07;;;;;;;;;;6255184;28;20440;-65
2022/04/06 10:39:31;;;;;;;10.70;6.40;;;;;;;;;;6264516;28;20048;-65
2022/04/06 10:42:34;;;;;;;11.30;7.38;;;;;;;;;;6262833;28;20526;-66
2022/04/06 10:45:35;;;;;;;10.57;6.95;;;;;;;;;;6260316;28;20045;-66
2022/04/06 10:49:15;;;;;;;11.20;7.18;;;;;;;;;;6262371;28;20053;-67
2022/04/06 10:52:23;;;;;;;10.38;6.22;;;;;;;;;;6242898;28;20053;-66
2022/04/06 10:55:24;;;;;;;9.63;6.05;;;;;;;;;;6259782;28;20488;-64
2022/04/06 10:58:26;;;;;;;11.55;5.97;;;;;;;;;;6258055;28;20065;-66
2022/04/06 11:01:33;;;;;;;9.10;5.65;;;;;;;;;;6262910;28;20049;-67
2022/04/06 11:04:40;;;;;;;10.60;5.50;;;;;;;;;;6263558;28;20047;-69
2022/04/06 11:11:38;;;;;;;9.45;5.68;;;;;;;;;;6262079;28;20045;-66
2022/04/06 11:14:41;;;;;;;9.57;5.60;;;;;;;;;;6260179;28;20052;-67
2022/04/06 11:17:42;;;;;;;9.52;5.40;;;;;;;;;;6249651;28;20504;-67
2022/04/06 11:20:44;;;;;;;68.47;26.92;;;;;;;;;;6253943;28;20535;-65
2022/04/06 11:23:45;;;;;;;12.95;7.22;;;;;;;;;;6264163;28;20101;-67
2022/04/06 11:26:49;;;;;;;10.25;6.60;;;;;;;;;;6254294;28;20465;-66
2022/04/06 11:29:49;;;;;;;9.90;6.70;;;;;;;;;;6262285;28;20045;-67
2022/04/06 11:32:51;;;;;;;10.32;6.55;;;;;;;;;;6257637;28;20045;-67
2022/04/06 11:35:52;;;;;;;10.25;5.93;;;;;;;;;;6251579;28;20094;-68
2022/04/06 11:38:53;;;;;;;11.88;6.05;;;;;;;;;;6259624;28;20421;-67
2022/04/06 11:41:53;;;;;;;8.40;5.13;;;;;;;;;;6262543;28;20056;-67
2022/04/06 11:44:54;;;;;;;9.95;5.70;;;;;;;;;;6259722;28;20056;-67
2022/04/06 11:47:57;;;;;;;9.07;5.93;;;;;;;;;;6268071;28;20131;-68
2022/04/06 11:51:03;;;;;;;9.73;5.70;;;;;;;;;;6265262;28;20953;-68
2022/04/06 11:54:03;;;;;;;9.32;5.20;;;;;;;;;;6268906;28;20082;-66
2022/04/06 11:57:04;;;;;;;9.82;5.68;;;;;;;;;;6260428;28;20381;-66
2022/04/06 12:00:08;;;;;;;8.95;5.25;;;;;;;;;;6266306;28;20080;-68
2022/04/06 12:03:09;;;;;;;8.25;5.32;;;;;;;;;;6259983;28;20090;-66
2022/04/06 12:06:11;;;;;;;12.77;5.38;;;;;;;;;;6265417;28;20132;-67
2022/04/06 12:09:13;;;;;;;8.15;4.85;;;;;;;;;;6266586;28;20080;-66
2022/04/06 12:12:13;;;;;;;7.28;4.07;;;;;;;;;;6265589;28;20494;-66
2022/04/06 12:15:14;;;;;;;8.68;5.70;;;;;;;;;;6264631;28;20057;-67
2022/04/06 12:18:18;;;;;;;9.80;5.90;;;;;;;;;;6258099;28;20496;-64
2022/04/06 12:21:27;;;;;;;8.52;4.93;;;;;;;;;;6255104;28;20084;-64
2022/04/06 12:24:43;;;;;;;7.72;4.20;;;;;;;;;;6264704;28;20135;-64
2022/04/06 12:27:44;;;;;;;9.20;4.93;;;;;;;;;;6257759;28;20056;-64
2022/04/06 12:30:53;;;;;;;7.55;4.82;;;;;;;;;;6266034;28;20068;-65
2022/04/06 12:33:54;;;;;;;9.15;5.07;;;;;;;;;;6268327;28;20072;-65
2022/04/06 12:36:55;;;;;;;10.32;5.63;;;;;;;;;;6267190;28;20053;-63
2022/04/06 12:39:57;;;;;;;20.77;10.70;;;;;;;;;;6267681;28;20098;-65
2022/04/06 12:42:57;;;;;;;10.60;5.50;;;;;;;;;;6262268;28;20049;-66
2022/04/06 12:45:58;;;;;;;8.73;5.30;;;;;;;;;;6265197;28;20049;-63
2022/04/06 12:49:17;;;;;;;16.92;8.68;;;;;;;;;;6253113;28;20526;-65
2022/04/06 12:52:20;;;;;;;11.45;5.82;;;;;;;;;;6262313;28;20044;-64
2022/04/06 12:55:20;;;;;;;18.35;11.25;;;;;;;;;;6264218;28;20048;-65
2022/04/06 12:58:22;;;;;;;14.00;6.85;;;;;;;;;;6263548;28;20044;-64
2022/04/06 13:01:23;;;;;;;12.32;7.30;;;;;;;;;;6268096;28;20044;-64
2022/04/06 13:04:23;;;;;;;10.10;5.72;;;;;;;;;;6266502;28;20139;-66
2022/04/06 13:07:24;;;;;;;10.20;5.78;;;;;;;;;;6255445;28;20569;-64
2022/04/06 13:10:30;;;;;;;9.13;4.78;;;;;;;;;;6260800;28;20119;-64
2022/04/06 13:13:31;;;;;;;8.48;5.13;;;;;;;;;;6255409;28;20136;-64
2022/04/06 13:16:32;;;;;;;8.77;5.20;;;;;;;;;;6258379;28;20042;-65
2022/04/06 13:19:32;;;;;;;9.77;5.00;;;;;;;;;;6251115;28;20091;-65
2022/04/06 13:22:34;;;;;;;8.00;4.97;;;;;;;;;;6257829;28;20137;-65
2022/04/06 13:25:35;;;;;;;35.83;19.20;;;;;;;;;;6264664;28;20049;-65
2022/04/06 13:28:36;;;;;;;10.80;7.30;;;;;;;;;;6256232;28;20067;-67
2022/04/06 13:31:39;;;;;;;9.45;4.05;;;;;;;;;;6249039;28;20144;-65
2022/04/06 13:34:40;;;;;;;9.85;5.40;;;;;;;;;;6255413;28;20061;-64
2022/04/06 13:37:43;;;;;;;6.90;4.20;;;;;;;;;;6254994;28;20098;-63
2022/04/06 13:40:44;;;;;;;8.95;4.10;;;;;;;;;;6254534;28;20041;-62
2022/04/06 13:43:44;;;;;;;7.78;4.30;;;;;;;;;;6254769;28;20573;-62
2022/04/06 13:46:45;;;;;;;6.25;3.45;;;;;;;;;;6265421;28;20049;-62
2022/04/06 13:49:45;;;;;;;6.38;3.80;;;;;;;;;;6266544;28;20492;-64
2022/04/06 13:52:46;;;;;;;9.38;3.55;;;;;;;;;;6264665;28;20044;-65
2022/04/06 13:55:47;;;;;;;8.25;3.13;;;;;;;;;;6256787;28;20124;-64
2022/04/06 13:58:47;;;;;;;8.63;4.95;;;;;;;;;;6267312;28;20049;-64
2022/04/06 14:01:48;;;;;;;7.43;5.15;;;;;;;;;;6263740;28;20125;-60
2022/04/06 14:04:50;;;;;;;5.32;3.10;;;;;;;;;;6260435;28;20053;-63
2022/04/06 14:07:51;;;;;;;6.15;3.38;;;;;;;;;;6260961;28;20538;-68
2022/04/06 14:10:52;;;;;;;4.72;2.58;;;;;;;;;;6264962;28;20044;-62
2022/04/06 14:13:53;;;;;;;8.33;4.87;;;;;;;;;;6262117;28;20045;-62
2022/04/06 14:16:54;;;;;;;6.68;3.75;;;;;;;;;;6259842;28;20052;-66
2022/04/06 14:19:54;;;;;;;6.07;3.40;;;;;;;;;;6262976;28;20136;-66
2022/04/06 14:22:55;;;;;;;5.32;3.45;;;;;;;;;;6261266;28;20048;-65
2022/04/06 14:25:55;;;;;;;6.22;3.67;;;;;;;;;;6260207;28;20536;-65
2022/04/06 14:28:56;;;;;;;7.63;3.30;;;;;;;;;;6263182;28;20500;-63
2022/04/06 14:31:57;;;;;;;9.25;3.63;;;;;;;;;;6265557;28;20069;-62
2022/04/06 14:34:58;;;;;;;7.28;4.32;;;;;;;;;;6253809;28;20487;-64
2022/04/06 14:37:58;;;;;;;6.60;3.72;;;;;;;;;;6265516;28;20059;-64
2022/04/06 14:40:59;;;;;;;8.20;4.68;;;;;;;;;;6261212;28;20053;-63
2022/04/06 14:43:59;;;;;;;7.00;4.40;;;;;;;;;;6263857;28;20052;-64
2022/04/06 14:47:00;;;;;;;8.95;4.20;;;;;;;;;;6262130;28;20041;-62
2022/04/06 14:50:03;;;;;;;8.13;4.28;;;;;;;;;;6264031;28;20135;-64
2022/04/06 14:53:05;;;;;;;7.15;4.68;;;;;;;;;;6263842;28;20044;-64
2022/04/06 14:56:06;;;;;;;;;;;;;;;;;;6264615;28;20056;-65
2022/04/06 14:59:07;;;;;;;10.05;4.82;;;;;;;;;;6265353;28;19924;-64
2022/04/06 15:02:09;;;;;;;8.10;4.57;;;;;;;;;;6265130;28;20143;-65
2022/04/06 15:05:10;;;;;;;10.40;5.20;;;;;;;;;;6257775;28;20080;-69
2022/04/06 15:08:13;;;;;;;8.88;5.00;;;;;;;;;;6256398;28;20489;-66
2022/04/06 15:11:14;;;;;;;7.78;4.72;;;;;;;;;;6264053;28;20137;-65
2022/04/06 15:14:14;;;;;;;8.15;5.15;;;;;;;;;;6263548;28;20045;-63
2022/04/06 15:17:15;;;;;;;6.88;5.00;;;;;;;;;;6263421;28;20135;-62
2022/04/06 15:20:17;;;;;;;8.57;5.30;;;;;;;;;;6263784;28;20067;-62
2022/04/06 15:23:19;;;;;;;12.15;6.00;;;;;;;;;;6267570;28;20048;-63
2022/04/06 15:26:20;;;;;;;7.85;4.60;;;;;;;;;;6263318;28;20107;-63
2022/04/06 15:29:22;;;;;;;14.35;7.40;;;;;;;;;;6267110;28;20052;-63
2022/04/06 15:32:23;;;;;;;;;;;;;;;;;;6267531;28;20094;-63
2022/04/06 15:38:43;;;;;;;10.93;6.00;;;;;;;;;;6268155;28;20467;-63
2022/04/06 15:41:44;;;;;;;12.80;7.03;;;;;;;;;;6267975;28;20063;-63
2022/04/06 15:44:45;;;;;;;9.80;5.43;;;;;;;;;;6266650;28;20090;-63
2022/04/06 15:47:45;;;;;;;11.43;6.63;;;;;;;;;;6270115;28;20119;-64
2022/04/06 15:50:48;;;;;;;8.18;4.60;;;;;;;;;;6264676;28;20522;-64
2022/04/06 15:53:50;;;;;;;6.85;4.35;;;;;;;;;;6266958;28;20373;-64
2022/04/06 15:56:51;;;;;;;11.10;5.13;;;;;;;;;;6266752;28;20102;-65
2022/04/06 15:59:52;;;;;;;8.48;4.28;;;;;;;;;;6269188;28;20111;-64
2022/04/06 16:02:52;;;;;;;8.45;4.22;;;;;;;;;;6269084;28;20048;-64
2022/04/06 16:05:53;;;;;;;8.02;4.10;;;;;;;;;;6265849;28;20055;-65
2022/04/06 16:08:54;;;;;;;7.80;4.18;;;;;;;;;;6268995;28;20120;-64
2022/04/06 16:11:54;;;;;;;9.35;4.40;;;;;;;;;;6266479;28;20114;-64
2022/04/06 16:14:55;;;;;;;7.18;4.65;;;;;;;;;;6266429;28;20113;-66
2022/04/06 16:17:55;;;;;;;7.60;4.03;;;;;;;;;;6266967;28;20428;-63
2022/04/06 16:20:56;;;;;;;7.22;4.00;;;;;;;;;;6263536;28;20120;-64
2022/04/06 16:23:57;;;;;;;6.88;3.88;;;;;;;;;;6266256;28;20056;-64
2022/04/06 16:26:57;;;;;;;7.32;3.75;;;;;;;;;;6266494;28;20120;-64
2022/04/06 16:29:58;;;;;;;7.53;4.03;;;;;;;;;;6268056;28;20044;-64
2022/04/06 16:32:58;;;;;;;8.68;3.90;;;;;;;;;;6266780;28;20049;-63
2022/04/06 16:36:01;;;;;;;9.82;4.47;;;;;;;;;;6263222;28;20195;-65
2022/04/06 16:39:03;;;;;;;9.18;4.63;;;;;;;;;;6263022;28;20049;-64
2022/04/06 16:42:05;;;;;;;15.98;6.57;;;;;;;;;;6265418;28;20053;-64
2022/04/06 16:45:06;;;;;;;19.50;7.45;;;;;;;;;;6260975;28;21485;-65
2022/04/06 16:48:07;;;;;;;16.10;6.32;;;;;;;;;;6254639;28;20077;-64
2022/04/06 16:54:27;;;;;;;21.45;7.80;;;;;;;;;;6251238;28;20053;-62
2022/04/06 16:57:28;;;;;;;22.13;7.93;;;;;;;;;;6252752;28;20140;-62
2022/04/06 17:00:28;;;;;;;14.52;6.57;;;;;;;;;;6257133;28;20393;-62
2022/04/06 17:03:29;;;;;;;17.08;10.73;;;;;;;;;;6256306;28;20091;-61
2022/04/06 17:06:30;;;;;;;43.10;26.83;;;;;;;;;;6253287;28;20052;-60
2022/04/06 17:09:30;;;;;;;18.42;15.25;;;;;;;;;;6258620;28;21123;-61
2022/04/06 17:12:32;;;;;;;41.78;22.30;;;;;;;;;;6259284;28;20569;-62
2022/04/06 17:15:33;;;;;;;11.57;6.25;;;;;;;;;;6253937;28;20053;-61
2022/04/06 17:18:34;;;;;;;8.55;5.88;;;;;;;;;;6254791;28;20048;-60
2022/04/06 17:21:34;;;;;;;10.93;5.65;;;;;;;;;;6251619;28;20051;-61
2022/04/06 17:24:36;;;;;;;8.07;5.35;;;;;;;;;;6253016;28;20081;-61
2022/04/06 17:27:40;;;;;;;8.48;4.80;;;;;;;;;;6251665;28;20522;-62
2022/04/06 17:30:41;;;;;;;7.68;4.85;;;;;;;;;;6250995;28;20835;-61
2022/04/06 17:33:48;;;;;;;8.40;4.40;;;;;;;;;;6254830;28;20049;-63
2022/04/06 17:36:51;;;;;;;8.60;4.70;;;;;;;;;;6251321;28;20091;-62
2022/04/06 17:39:52;;;;;;;11.60;5.28;;;;;;;;;;6252789;28;20048;-62
2022/04/06 17:42:52;;;;;;;9.27;5.15;;;;;;;;;;6252754;28;20051;-62
2022/04/06 17:45:53;;;;;;;11.55;7.78;;;;;;;;;;6251265;28;20045;-63
2022/04/06 17:48:54;;;;;;;9.00;4.70;;;;;;;;;;6251292;28;20056;-62
2022/04/06 17:51:59;;;;;;;14.25;6.57;;;;;;;;;;6253376;28;20119;-62
2022/04/06 17:54:59;;;;;;;12.85;7.15;;;;;;;;;;6246549;28;20046;-66
2022/04/06 17:58:01;;;;;;;20.83;8.43;;;;;;;;;;6255322;28;20519;-62
2022/04/06 18:01:02;;;;;;;32.42;14.45;;;;;;;;;;6254376;28;20056;-62
2022/04/06 18:04:04;;;;;;;34.45;18.80;;;;;;;;;;6255995;28;20076;-60
2022/04/06 18:07:05;;;;;;;35.90;22.67;;;;;;;;;;6251858;28;20150;-60
2022/04/06 18:10:07;;;;;;;23.50;13.88;;;;;;;;;;6253012;28;20049;-60
2022/04/06 18:16:27;;;;;;;93.38;40.20;;;;;;;;;;6250066;28;20040;-61